createdAt,value
2022-10-15T00:01:47.303Z,18.58
2022-10-15T00:04:15.766Z,19.33
2022-10-15T00:06:44.251Z,19.00
2022-10-15T00:09:14.115Z,28.27
2022-10-15T00:11:42.547Z,23.08
2022-10-15T00:14:11.039Z,21.38
2022-10-15T00:16:39.439Z,21.15
2022-10-15T00:19:08.109Z,20.95
2022-10-15T00:21:37.182Z,20.40
2022-10-15T00:24:06.630Z,20.80
2022-10-15T00:26:36.511Z,20.33
2022-10-15T00:29:05.969Z,23.58
2022-10-15T00:31:34.560Z,20.17
2022-10-15T00:34:03.855Z,18.38
2022-10-15T00:36:34.440Z,21.55
2022-10-15T00:39:03.187Z,21.38
2022-10-15T00:41:34.325Z,20.45
2022-10-15T00:44:25.159Z,25.70
2022-10-15T00:46:56.110Z,19.40
2022-10-15T00:49:27.345Z,22.58
2022-10-15T00:52:01.065Z,24.48
2022-10-15T00:54:34.828Z,30.55
2022-10-15T00:57:03.391Z,23.33
2022-10-15T00:59:34.085Z,26.60
2022-10-15T01:02:03.291Z,30.38
2022-10-15T01:04:32.632Z,20.92
2022-10-15T01:07:01.090Z,19.35
2022-10-15T01:09:29.728Z,20.35
2022-10-15T01:11:58.817Z,17.40
2022-10-15T01:14:36.709Z,26.70
2022-10-15T01:17:09.508Z,35.28
2022-10-15T01:20:06.510Z,40.88
2022-10-15T01:22:47.390Z,40.05
2022-10-15T01:25:29.751Z,47.03
2022-10-15T01:28:06.413Z,49.97
2022-10-15T01:30:41.873Z,37.50
2022-10-15T01:33:27.697Z,50.40
2022-10-15T01:36:05.604Z,48.28
2022-10-15T01:38:44.974Z,40.63
2022-10-15T01:41:17.517Z,37.00
2022-10-15T01:43:49.756Z,38.33
2022-10-15T01:46:49.350Z,47.55
2022-10-15T01:49:27.146Z,50.05
2022-10-15T01:51:58.598Z,47.72
2022-10-15T01:54:29.204Z,39.33
2022-10-15T01:57:00.487Z,45.15
2022-10-15T01:59:32.742Z,36.92
2022-10-15T02:02:02.827Z,35.85
2022-10-15T02:04:32.765Z,33.83
2022-10-15T02:07:06.885Z,41.88
2022-10-15T02:09:44.944Z,47.38
2022-10-15T02:12:29.828Z,45.83
2022-10-15T02:15:08.173Z,38.33
2022-10-15T02:17:44.079Z,41.42
2022-10-15T02:20:18.148Z,34.85
2022-10-15T02:22:52.057Z,37.65
2022-10-15T02:25:23.713Z,35.20
2022-10-15T02:27:56.029Z,34.08
2022-10-15T02:30:25.658Z,37.67
2022-10-15T02:32:59.501Z,32.80
2022-10-15T02:35:29.549Z,35.85
2022-10-15T02:38:03.410Z,39.58
2022-10-15T02:40:37.109Z,32.22
2022-10-15T02:43:08.231Z,36.92
2022-10-15T02:45:37.018Z,31.95
2022-10-15T02:48:08.298Z,31.52
2022-10-15T02:50:37.273Z,29.08
2022-10-15T02:53:06.585Z,32.83
2022-10-15T02:55:36.049Z,32.03
2022-10-15T02:58:04.492Z,26.92
2022-10-15T03:00:33.101Z,31.02
2022-10-15T03:03:01.725Z,26.02
2022-10-15T03:05:31.863Z,29.30
2022-10-15T03:08:01.803Z,34.58
2022-10-15T03:10:31.468Z,34.13
2022-10-15T03:13:04.099Z,25.27
2022-10-15T03:15:35.181Z,25.67
2022-10-15T03:18:04.677Z,24.30
2022-10-15T03:20:34.512Z,30.17
2022-10-15T03:23:03.408Z,26.67
2022-10-15T03:25:33.430Z,31.80
2022-10-15T03:28:05.771Z,26.10
2022-10-15T03:30:40.711Z,30.95
2022-10-15T03:33:09.528Z,32.67
2022-10-15T03:35:40.111Z,25.98
2022-10-15T03:38:09.793Z,29.77
2022-10-15T03:40:38.300Z,25.98
2022-10-15T03:43:18.758Z,24.40
2022-10-15T03:45:47.742Z,27.13
2022-10-15T03:48:21.185Z,31.13
2022-10-15T03:50:51.462Z,28.08
2022-10-15T03:53:19.890Z,31.42
2022-10-15T03:55:49.008Z,32.70
2022-10-15T03:58:17.903Z,37.05
2022-10-15T04:00:54.431Z,36.92
2022-10-15T04:03:22.960Z,30.33
2022-10-15T04:05:54.688Z,38.30
2022-10-15T04:08:27.350Z,41.95
2022-10-15T04:10:56.120Z,36.78
2022-10-15T04:13:25.261Z,31.50
2022-10-15T04:15:54.260Z,26.40
2022-10-15T04:18:23.769Z,27.23
2022-10-15T04:21:00.031Z,32.97
2022-10-15T04:23:29.006Z,40.97
2022-10-15T04:26:16.192Z,47.10
2022-10-15T04:28:44.802Z,39.78
2022-10-15T04:31:13.790Z,39.65
2022-10-15T04:33:42.293Z,43.00
2022-10-15T04:36:14.689Z,34.55
2022-10-15T04:38:56.295Z,26.33
2022-10-15T04:41:35.388Z,35.85
2022-10-15T04:44:14.293Z,33.15
2022-10-15T04:46:47.949Z,34.30
2022-10-15T04:49:34.936Z,39.60
2022-10-15T04:52:11.415Z,39.28
2022-10-15T04:54:51.102Z,39.13
2022-10-15T04:57:20.239Z,36.72
2022-10-15T04:59:51.548Z,31.70
2022-10-15T05:03:07.099Z,34.67
2022-10-15T05:05:50.772Z,42.20
2022-10-15T05:08:20.662Z,41.08
2022-10-15T05:11:13.324Z,29.67
2022-10-15T05:13:41.985Z,32.55
2022-10-15T05:16:12.666Z,31.70
2022-10-15T05:18:41.441Z,32.67
2022-10-15T05:21:11.382Z,31.80
2022-10-15T05:23:44.108Z,29.05
2022-10-15T05:26:44.497Z,28.90
2022-10-15T05:29:13.460Z,33.33
2022-10-15T05:31:41.875Z,32.85
2022-10-15T05:34:20.304Z,32.60
2022-10-15T05:36:54.808Z,27.17
2022-10-15T05:39:24.828Z,31.58
2022-10-15T05:41:55.021Z,33.17
2022-10-15T05:44:33.423Z,29.08
2022-10-15T05:47:02.090Z,30.77
2022-10-15T05:49:31.022Z,29.30
2022-10-15T05:52:20.115Z,31.98
2022-10-15T05:55:28.318Z,28.60
2022-10-15T05:57:57.744Z,30.42
2022-10-15T06:00:26.172Z,33.17
2022-10-15T06:05:28.247Z,31.15
2022-10-15T06:07:58.097Z,26.38
2022-10-15T06:10:29.357Z,34.30
2022-10-15T06:12:58.064Z,27.58
2022-10-15T06:15:26.482Z,30.42
2022-10-15T06:17:55.391Z,26.27
2022-10-15T06:20:23.990Z,26.30
2022-10-15T06:22:52.871Z,28.95
2022-10-15T06:25:21.358Z,25.83
2022-10-15T06:27:51.262Z,26.70
2022-10-15T06:30:19.795Z,30.40
2022-10-15T06:32:50.082Z,27.20
2022-10-15T06:35:19.878Z,33.38
2022-10-15T06:37:48.338Z,29.95
2022-10-15T06:40:17.219Z,23.95
2022-10-15T06:42:45.704Z,30.90
2022-10-15T06:45:18.141Z,30.45
2022-10-15T06:47:49.463Z,29.38
2022-10-15T06:50:18.063Z,24.33
2022-10-15T06:52:46.842Z,22.50
2022-10-15T06:55:15.550Z,23.05
2022-10-15T06:57:43.969Z,20.48
2022-10-15T07:00:17.661Z,25.23
2022-10-15T07:02:46.131Z,22.17
2022-10-15T07:05:14.816Z,25.08
2022-10-15T07:07:43.438Z,26.50
2022-10-15T07:10:13.458Z,20.42
2022-10-15T07:12:42.733Z,21.08
2022-10-15T07:15:11.434Z,19.95
2022-10-15T07:17:41.313Z,20.52
2022-10-15T07:20:10.192Z,18.10
2022-10-15T07:22:38.651Z,22.60
2022-10-15T07:25:07.475Z,20.58
2022-10-15T07:27:35.869Z,23.88
2022-10-15T07:30:04.899Z,18.27
2022-10-15T07:32:33.321Z,22.17
2022-10-15T07:35:03.137Z,19.13
2022-10-15T07:37:31.917Z,19.70
2022-10-15T07:40:00.460Z,17.02
2022-10-15T07:42:28.869Z,20.52
2022-10-15T07:44:57.387Z,18.65
2022-10-15T07:47:26.038Z,18.52
2022-10-15T07:49:54.661Z,20.08
2022-10-15T07:52:24.801Z,21.23
2022-10-15T07:54:53.629Z,22.75
2022-10-15T07:57:22.069Z,23.20
2022-10-15T07:59:51.781Z,22.00
2022-10-15T08:02:21.178Z,21.00
2022-10-15T08:04:49.838Z,21.10
2022-10-15T08:07:18.325Z,23.17
2022-10-15T08:09:48.153Z,23.55
2022-10-15T08:12:16.581Z,19.75
2022-10-15T08:14:45.074Z,22.48
2022-10-15T08:17:13.605Z,21.45
2022-10-15T08:19:42.039Z,24.08
2022-10-15T08:22:10.502Z,19.95
2022-10-15T08:24:38.888Z,24.02
2022-10-15T08:27:08.745Z,21.63
2022-10-15T08:29:37.568Z,22.13
2022-10-15T08:32:06.179Z,28.55
2022-10-15T08:34:34.841Z,25.13
2022-10-15T08:37:04.280Z,25.55
2022-10-15T08:39:32.834Z,22.98
2022-10-15T08:42:04.185Z,28.48
2022-10-15T08:44:43.855Z,26.85
2022-10-15T08:47:25.808Z,27.98
2022-10-15T08:49:56.688Z,26.05
2022-10-15T08:52:32.225Z,26.88
2022-10-15T08:55:02.522Z,29.10
2022-10-15T08:57:42.618Z,26.05
2022-10-15T09:00:19.483Z,29.85
2022-10-15T09:02:59.591Z,25.90
2022-10-15T09:05:35.971Z,27.73
2022-10-15T09:08:13.983Z,28.73
2022-10-15T09:10:48.357Z,23.33
2022-10-15T09:13:23.385Z,22.70
2022-10-15T09:15:57.349Z,26.65
2022-10-15T09:18:28.896Z,21.02
2022-10-15T09:20:58.762Z,23.52
2022-10-15T09:23:30.082Z,25.58
2022-10-15T09:26:05.078Z,23.35
2022-10-15T09:28:42.266Z,21.63
2022-10-15T09:31:17.349Z,19.88
2022-10-15T09:33:51.915Z,21.60
2022-10-15T09:36:36.708Z,20.92
2022-10-15T09:39:20.881Z,22.90
2022-10-15T09:42:02.452Z,22.00
2022-10-15T09:44:39.158Z,24.55
2022-10-15T09:47:19.578Z,22.35
2022-10-15T09:49:49.433Z,23.55
2022-10-15T09:52:27.282Z,25.30
2022-10-15T09:55:09.462Z,32.80
2022-10-15T09:57:41.355Z,28.95
2022-10-15T10:00:13.809Z,24.58
2022-10-15T10:02:44.202Z,27.90
2022-10-15T10:05:30.374Z,30.65
2022-10-15T10:08:10.663Z,29.92
2022-10-15T10:10:41.842Z,25.35
2022-10-15T10:13:25.529Z,30.88
2022-10-15T10:15:58.482Z,33.97
2022-10-15T10:18:31.504Z,39.13
2022-10-15T10:21:01.811Z,42.65
2022-10-15T10:23:35.833Z,41.25
2022-10-15T10:26:06.962Z,40.33
2022-10-15T10:28:40.623Z,47.58
2022-10-15T10:31:13.266Z,42.05
2022-10-15T10:33:48.949Z,34.95
2022-10-15T10:36:25.665Z,39.88
2022-10-15T10:39:02.008Z,36.78
2022-10-15T10:41:52.078Z,40.08
2022-10-15T10:44:23.471Z,45.58
2022-10-15T10:47:19.569Z,46.58
2022-10-15T10:49:51.620Z,43.13
2022-10-15T10:52:25.692Z,36.30
2022-10-15T10:55:05.909Z,40.42
2022-10-15T10:57:42.797Z,40.17
2022-10-15T11:00:19.224Z,40.15
2022-10-15T11:02:50.388Z,39.83
2022-10-15T11:05:31.856Z,40.10
2022-10-15T11:08:11.954Z,34.83
2022-10-15T11:10:48.812Z,33.63
2022-10-15T11:13:37.186Z,42.65
2022-10-15T11:16:12.933Z,36.75
2022-10-15T11:18:57.350Z,40.15
2022-10-15T11:21:42.992Z,43.47
2022-10-15T11:24:17.131Z,40.63
2022-10-15T11:27:10.749Z,46.10
2022-10-15T11:29:53.229Z,46.47
2022-10-15T11:32:54.359Z,51.05
2022-10-15T11:35:54.221Z,55.28
2022-10-15T11:38:35.351Z,51.00
2022-10-15T11:41:21.666Z,49.25
2022-10-15T11:44:02.825Z,45.97
2022-10-15T11:46:38.782Z,38.33
2022-10-15T11:49:21.657Z,35.95
2022-10-15T11:52:04.034Z,34.90
2022-10-15T11:54:38.480Z,39.05
2022-10-15T11:57:12.725Z,33.65
2022-10-15T11:59:49.924Z,31.45
2022-10-15T12:02:24.472Z,35.25
2022-10-15T12:04:56.962Z,33.83
2022-10-15T12:07:29.734Z,32.33
2022-10-15T12:10:11.154Z,31.42
2022-10-15T12:12:46.467Z,30.25
2022-10-15T12:15:28.773Z,37.78
2022-10-15T12:18:03.312Z,29.75
2022-10-15T12:20:32.433Z,25.17
2022-10-15T12:23:02.306Z,26.33
2022-10-15T12:25:48.628Z,23.77
2022-10-15T12:28:22.985Z,22.77
2022-10-15T12:31:02.880Z,19.17
2022-10-15T12:33:35.947Z,12.50
2022-10-15T12:36:10.067Z,14.02
2022-10-15T12:38:41.400Z,11.63
2022-10-15T12:41:14.531Z,13.48
2022-10-15T12:43:46.176Z,10.82
2022-10-15T12:46:15.757Z,11.77
2022-10-15T12:48:46.378Z,14.23
2022-10-15T12:51:38.562Z,12.98
2022-10-15T12:54:39.913Z,15.10
2022-10-15T12:57:56.069Z,11.73
2022-10-15T13:00:36.416Z,14.30
2022-10-15T13:03:22.286Z,23.00
2022-10-15T13:05:53.944Z,22.02
2022-10-15T13:08:35.563Z,9.20
2022-10-15T13:11:04.138Z,14.40
2022-10-15T13:13:36.500Z,15.13
2022-10-15T13:16:10.801Z,8.32
2022-10-15T13:18:40.419Z,7.63
2022-10-15T13:21:11.391Z,9.18
2022-10-15T13:23:47.073Z,10.60
2022-10-15T13:26:20.678Z,7.93
2022-10-15T13:28:52.997Z,10.05
2022-10-15T13:31:29.067Z,11.75
2022-10-15T13:34:04.198Z,15.27
2022-10-15T13:36:34.885Z,11.48
2022-10-15T13:39:07.255Z,13.82
2022-10-15T13:41:38.488Z,18.35
2022-10-15T13:44:08.385Z,13.90
2022-10-15T13:46:44.781Z,26.75
2022-10-15T13:49:14.668Z,35.95
2022-10-15T13:51:45.120Z,87.00
2022-10-15T13:54:17.900Z,33.35
2022-10-15T13:56:53.527Z,31.27
2022-10-15T13:59:24.378Z,55.95
2022-10-15T14:01:55.930Z,28.92
2022-10-15T14:04:25.325Z,17.85
2022-10-15T14:09:35.152Z,125.88
2022-10-15T14:12:06.156Z,28.38
2022-10-15T14:14:37.605Z,38.35
2022-10-15T14:17:09.037Z,80.55
2022-10-15T14:19:39.903Z,153.40
2022-10-15T14:22:08.786Z,88.53
2022-10-15T14:24:40.349Z,72.78
2022-10-15T14:27:15.624Z,39.00
2022-10-15T14:29:48.044Z,25.17
2022-10-15T14:32:25.449Z,28.15
2022-10-15T14:34:55.504Z,40.08
2022-10-15T14:37:32.744Z,13.18
2022-10-15T14:40:15.505Z,19.42
2022-10-15T14:42:45.877Z,82.40
2022-10-15T14:45:24.687Z,43.42
2022-10-15T14:47:55.996Z,29.80
2022-10-15T14:50:27.612Z,15.10
2022-10-15T14:52:56.633Z,14.10
2022-10-15T14:55:33.503Z,18.65
2022-10-15T14:58:08.168Z,21.42
2022-10-15T15:00:43.564Z,33.45
2022-10-15T15:03:16.622Z,14.05
2022-10-15T15:05:47.785Z,13.18
2022-10-15T15:08:16.505Z,21.65
2022-10-15T15:10:46.212Z,31.08
2022-10-15T15:13:21.097Z,14.75
2022-10-15T15:15:51.215Z,7.95
2022-10-15T15:18:19.912Z,9.98
2022-10-15T15:20:49.948Z,8.88
2022-10-15T15:23:22.349Z,8.18
2022-10-15T15:25:52.432Z,10.32
2022-10-15T15:28:22.796Z,19.00
2022-10-15T15:31:00.178Z,31.50
2022-10-15T15:33:29.547Z,18.45
2022-10-15T15:36:02.976Z,7.00
2022-10-15T15:38:31.868Z,6.18
2022-10-15T15:41:05.571Z,4.25
2022-10-15T15:43:34.043Z,7.93
2022-10-15T15:46:03.936Z,8.77
2022-10-15T15:48:32.436Z,19.75
2022-10-15T15:51:04.177Z,8.95
2022-10-15T15:53:32.867Z,8.48
2022-10-15T15:56:01.328Z,14.38
2022-10-15T15:58:29.810Z,12.60
2022-10-15T16:00:58.240Z,7.97
2022-10-15T16:03:28.059Z,7.65
2022-10-15T16:05:56.912Z,7.57
2022-10-15T16:08:25.362Z,6.68
2022-10-15T16:10:53.782Z,7.13
2022-10-15T16:13:22.193Z,5.78
2022-10-15T16:15:50.657Z,12.02
2022-10-15T16:18:19.024Z,7.90
2022-10-15T16:20:49.102Z,9.75
2022-10-15T16:23:18.152Z,11.90
2022-10-15T16:25:46.621Z,13.73
2022-10-15T16:28:15.041Z,5.63
2022-10-15T16:30:43.506Z,14.45
2022-10-15T16:33:11.930Z,16.88
2022-10-15T16:35:40.337Z,10.88
2022-10-15T16:38:10.402Z,10.30
2022-10-15T16:40:40.117Z,9.60
2022-10-15T16:43:08.558Z,10.52
2022-10-15T16:45:37.009Z,8.80
2022-10-15T16:48:06.449Z,12.00
2022-10-15T16:50:34.846Z,11.25
2022-10-15T16:53:03.985Z,14.82
2022-10-15T16:55:33.900Z,8.32
2022-10-15T16:58:02.308Z,4.85
2022-10-15T17:00:31.183Z,8.35
2022-10-15T17:03:02.724Z,6.43
2022-10-15T17:05:32.737Z,6.60
2022-10-15T17:08:01.278Z,15.82
2022-10-15T17:10:29.666Z,15.77
2022-10-15T17:12:59.778Z,15.52
2022-10-15T17:15:28.228Z,11.05
2022-10-15T17:17:56.701Z,16.38
2022-10-15T17:20:25.175Z,18.17
2022-10-15T17:22:53.618Z,13.25
2022-10-15T17:25:22.315Z,15.77
2022-10-15T17:27:52.765Z,22.58
2022-10-15T17:30:22.622Z,24.42
2022-10-15T17:32:51.067Z,64.75
2022-10-15T17:35:19.888Z,52.72
2022-10-15T17:37:48.334Z,17.25
2022-10-15T17:40:16.938Z,18.10
2022-10-15T17:42:45.608Z,13.63
2022-10-15T17:45:14.004Z,14.20
2022-10-15T17:47:43.996Z,13.55
2022-10-15T17:50:14.478Z,36.40
2022-10-15T17:52:43.108Z,20.60
2022-10-15T17:55:11.537Z,15.88
2022-10-15T17:57:40.113Z,26.35
2022-10-15T18:00:11.544Z,23.58
2022-10-15T18:02:44.400Z,18.23
2022-10-15T18:05:12.843Z,10.13
2022-10-15T18:07:43.295Z,13.20
2022-10-15T18:10:12.752Z,9.55
2022-10-15T18:12:41.198Z,11.05
2022-10-15T18:15:10.341Z,10.32
2022-10-15T18:17:38.938Z,8.50
2022-10-15T18:20:09.622Z,5.30
2022-10-15T18:22:38.237Z,10.90
2022-10-15T18:25:07.449Z,5.60
2022-10-15T18:27:35.896Z,7.10
2022-10-15T18:30:04.841Z,7.65
2022-10-15T18:35:09.204Z,7.22
2022-10-15T18:37:37.698Z,6.60
2022-10-15T18:40:07.485Z,8.30
2022-10-15T18:42:36.185Z,7.35
2022-10-15T18:45:06.429Z,5.75
2022-10-15T18:47:34.853Z,6.65
2022-10-15T18:50:03.386Z,9.07
2022-10-15T18:52:39.699Z,6.35
2022-10-15T18:55:09.846Z,7.10
2022-10-15T18:57:43.780Z,5.47
2022-10-15T19:00:13.327Z,5.13
2022-10-15T19:02:41.804Z,8.82
2022-10-15T19:05:10.580Z,10.25
2022-10-15T19:07:40.471Z,6.30
2022-10-15T19:10:09.760Z,8.10
2022-10-15T19:12:38.761Z,8.20
2022-10-15T19:15:08.269Z,7.50
2022-10-15T19:17:36.668Z,7.18
2022-10-15T19:20:06.680Z,10.20
2022-10-15T19:22:35.146Z,10.25
2022-10-15T19:25:06.581Z,9.00
2022-10-15T19:27:35.304Z,9.48
2022-10-15T19:30:03.959Z,7.47
2022-10-15T19:32:32.377Z,10.20
2022-10-15T19:35:01.637Z,9.10
2022-10-15T19:37:30.108Z,11.68
2022-10-15T19:39:58.514Z,10.77
2022-10-15T19:42:30.846Z,10.82
2022-10-15T19:44:59.258Z,13.07
2022-10-15T19:47:27.930Z,8.18
2022-10-15T19:49:56.841Z,9.02
2022-10-15T19:52:25.298Z,7.40
2022-10-15T19:54:53.701Z,6.10
2022-10-15T19:57:22.712Z,5.57
2022-10-15T19:59:52.620Z,7.10
2022-10-15T20:02:21.034Z,5.75
2022-10-15T20:04:49.496Z,9.98
2022-10-15T20:07:17.926Z,8.32
2022-10-15T20:09:46.938Z,8.20
2022-10-15T20:12:15.471Z,8.82
2022-10-15T20:14:44.166Z,13.10
2022-10-15T20:17:14.077Z,11.07
2022-10-15T20:19:42.570Z,10.30
2022-10-15T20:22:11.055Z,9.68
2022-10-15T20:24:39.611Z,9.32
2022-10-15T20:27:08.077Z,8.63
2022-10-15T20:29:36.551Z,11.93
2022-10-15T20:32:11.022Z,12.32
2022-10-15T20:34:52.953Z,10.68
2022-10-15T20:37:21.547Z,12.13
2022-10-15T20:39:50.040Z,9.85
2022-10-15T20:42:19.123Z,10.50
2022-10-15T20:44:48.032Z,9.25
2022-10-15T20:47:17.604Z,12.45
2022-10-15T20:49:50.653Z,10.77
2022-10-15T20:52:21.881Z,8.10
2022-10-15T20:54:50.842Z,9.65
2022-10-15T20:57:19.553Z,10.65
2022-10-15T20:59:48.069Z,6.47
2022-10-15T21:02:16.507Z,8.02
2022-10-15T21:04:46.917Z,8.68
2022-10-15T21:07:15.493Z,7.28
2022-10-15T21:09:45.505Z,9.60
2022-10-15T21:12:20.218Z,7.13
2022-10-15T21:14:56.936Z,8.32
2022-10-15T21:17:25.744Z,7.80
2022-10-15T21:20:07.427Z,10.48
2022-10-15T21:22:39.622Z,6.35
2022-10-15T21:25:10.018Z,6.18
2022-10-15T21:27:39.126Z,8.88
2022-10-15T21:30:08.610Z,5.60
2022-10-15T21:32:37.123Z,11.82
2022-10-15T21:35:06.124Z,6.20
2022-10-15T21:37:35.594Z,6.30
2022-10-15T21:40:04.724Z,9.35
2022-10-15T21:42:34.897Z,7.05
2022-10-15T21:45:03.487Z,9.73
2022-10-15T21:47:33.417Z,11.43
2022-10-15T21:50:01.902Z,16.52
2022-10-15T21:52:30.646Z,12.23
2022-10-15T21:55:04.614Z,11.15
2022-10-15T21:57:34.896Z,8.48
2022-10-15T22:00:03.424Z,8.05
2022-10-15T22:02:32.556Z,7.32
2022-10-15T22:05:00.991Z,6.47
2022-10-15T22:07:29.469Z,5.25
2022-10-15T22:09:57.865Z,5.93
2022-10-15T22:12:26.541Z,6.18
2022-10-15T22:14:56.738Z,3.00
2022-10-15T22:17:25.226Z,4.57
2022-10-15T22:19:53.649Z,5.85
2022-10-15T22:22:22.247Z,5.13
2022-10-15T22:24:50.961Z,5.07
2022-10-15T22:27:19.375Z,4.15
2022-10-15T22:29:47.999Z,6.28
2022-10-15T22:32:17.843Z,5.53
2022-10-15T22:34:46.296Z,3.60
2022-10-15T22:37:14.788Z,5.63
2022-10-15T22:39:43.260Z,8.77
2022-10-15T22:42:11.894Z,10.20
2022-10-15T22:44:40.394Z,10.05
2022-10-15T22:47:09.656Z,8.05
2022-10-15T22:49:39.938Z,7.25
2022-10-15T22:52:08.670Z,7.53
2022-10-15T22:54:37.310Z,6.70
2022-10-15T22:57:05.798Z,10.23
2022-10-15T22:59:34.235Z,6.72
2022-10-15T23:02:04.294Z,7.25
2022-10-15T23:04:32.905Z,5.57
2022-10-15T23:07:02.840Z,3.97
2022-10-15T23:09:31.386Z,6.22
2022-10-15T23:11:59.786Z,4.82
2022-10-15T23:14:28.398Z,4.85
2022-10-15T23:16:58.817Z,5.47
2022-10-15T23:19:27.305Z,8.48
2022-10-15T23:21:57.059Z,9.07
2022-10-15T23:24:29.122Z,5.20
2022-10-15T23:26:58.244Z,3.83
2022-10-15T23:29:29.164Z,4.40
2022-10-15T23:31:57.676Z,5.63
2022-10-15T23:34:27.657Z,5.35
2022-10-15T23:36:56.152Z,6.28
2022-10-15T23:39:27.934Z,7.47
2022-10-15T23:41:56.545Z,6.05
2022-10-15T23:44:26.917Z,5.03
2022-10-15T23:46:55.455Z,4.03
2022-10-15T23:49:24.075Z,6.00
2022-10-15T23:51:52.930Z,3.67
2022-10-15T23:54:21.607Z,5.30
2022-10-15T23:56:51.467Z,4.22
2022-10-15T23:59:21.420Z,5.57
